Time;durP1;ratioP1;P1;durP2;ratioP2;P2;SDS_P1;SDS_P2;PMS_P1;PMS_P2;Temp;Humidity;BMP_temperature;BMP_pressure;BME280_temperature;BME280_humidity;BME280_pressure;Samples;Min_cycle;Max_cycle;Signal;HPM_P1;HPM_P2
2023/09/22 00:03:08;;;;;;;10.00;5.73;;;;;12.20;99344.00;;;;10010087;29;20314;-78
2023/09/22 00:08:12;;;;;;;8.37;5.20;;;;;12.30;99340.00;;;;10013352;29;20206;-78
2023/09/22 00:13:14;;;;;;;9.53;4.83;;;;;12.40;99337.00;;;;9991613;29;20677;-84
2023/09/22 00:18:16;;;;;;;7.30;4.50;;;;;12.60;99357.00;;;;10009112;29;20669;-83
2023/09/22 00:23:18;;;;;;;10.73;4.20;;;;;12.70;99333.00;;;;9994530;29;20234;-83
2023/09/22 00:28:20;;;;;;;7.37;3.40;;;;;12.70;99338.00;;;;9996154;29;20209;-83
2023/09/22 00:33:22;;;;;;;9.53;4.00;;;;;12.70;99338.00;;;;9985352;29;20212;-83
2023/09/22 00:38:24;;;;;;;7.43;3.77;;;;;12.70;99320.00;;;;10011641;29;20221;-82
2023/09/22 00:43:26;;;;;;;7.17;3.87;;;;;12.70;99319.00;;;;10004589;29;20287;-82
2023/09/22 00:48:34;;;;;;;6.13;3.83;;;;;12.70;99321.00;;;;9987304;29;20217;-82
2023/09/22 00:53:38;;;;;;;8.20;4.17;;;;;12.80;99317.00;;;;9986191;29;20209;-82
2023/09/22 00:58:41;;;;;;;8.60;5.07;;;;;12.80;99325.00;;;;10001948;29;20571;-82
2023/09/22 01:03:44;;;;;;;12.10;6.17;;;;;12.80;99308.00;;;;10015533;29;20259;-82
2023/09/22 01:08:47;;;;;;;13.57;6.13;;;;;12.90;99313.00;;;;10028798;29;20328;-85
2023/09/22 01:13:49;;;;;;;15.20;6.63;;;;;12.80;99318.00;;;;10016084;29;20213;-87
2023/09/22 01:18:52;;;;;;;13.40;6.47;;;;;12.80;99310.00;;;;9998542;29;20248;-86
2023/09/22 01:23:54;;;;;;;14.83;6.63;;;;;12.80;99294.00;;;;9998908;29;20225;-84
2023/09/22 01:28:56;;;;;;;13.57;6.13;;;;;12.80;99291.00;;;;10021959;29;20656;-87
2023/09/22 01:33:58;;;;;;;13.20;6.47;;;;;12.80;99309.00;;;;10006266;29;20240;-87
2023/09/22 01:39:04;;;;;;;15.33;6.33;;;;;12.80;99296.00;;;;10011103;29;20220;-86
2023/09/22 01:44:07;;;;;;;16.03;6.67;;;;;12.70;99290.00;;;;10030368;29;20824;-86
2023/09/22 01:49:09;;;;;;;18.03;6.63;;;;;12.70;99287.00;;;;10008079;29;20228;-85
2023/09/22 01:54:12;;;;;;;13.77;6.87;;;;;12.70;99291.00;;;;10025962;29;20218;-86
2023/09/22 01:59:14;;;;;;;14.83;6.93;;;;;12.80;99295.00;;;;9997062;29;20259;-85
2023/09/22 02:04:16;;;;;;;16.43;7.00;;;;;12.80;99296.00;;;;10005680;29;20260;-85
2023/09/22 02:09:19;;;;;;;13.53;5.83;;;;;12.90;99294.00;;;;10020614;29;20209;-86
2023/09/22 02:14:21;;;;;;;14.23;6.53;;;;;12.90;99291.00;;;;10006962;29;20269;-84
2023/09/22 02:19:24;;;;;;;11.37;5.20;;;;;12.90;99306.00;;;;9994959;29;20927;-79
2023/09/22 02:24:26;;;;;;;9.70;5.50;;;;;12.90;99312.00;;;;10011999;29;20226;-78
2023/09/22 02:29:28;;;;;;;10.50;5.03;;;;;12.90;99306.00;;;;10025046;29;20262;-79
2023/09/22 02:34:32;;;;;;;7.13;4.17;;;;;12.90;99308.00;;;;10014650;29;20220;-79
2023/09/22 02:39:34;;;;;;;6.40;3.37;;;;;12.90;99318.00;;;;9988089;29;20304;-79
2023/09/22 02:44:36;;;;;;;7.17;3.10;;;;;12.90;99309.00;;;;9997509;29;20683;-80
2023/09/22 02:49:38;;;;;;;5.80;3.07;;;;;12.90;99316.00;;;;10005075;29;20278;-78
2023/09/22 02:54:40;;;;;;;5.47;2.97;;;;;12.90;99315.00;;;;9992639;29;20211;-79
2023/09/22 02:59:42;;;;;;;8.17;2.33;;;;;12.90;99320.00;;;;10021430;29;20213;-77
2023/09/22 03:04:45;;;;;;;7.50;2.80;;;;;13.00;99321.00;;;;10003392;29;20252;-80
2023/09/22 03:09:47;;;;;;;8.00;2.80;;;;;13.00;99315.00;;;;9983782;29;20221;-78
2023/09/22 03:14:50;;;;;;;8.77;2.70;;;;;12.80;99318.00;;;;9989965;29;20893;-79
2023/09/22 03:19:52;;;;;;;5.90;2.70;;;;;12.70;99323.00;;;;10016024;29;20225;-79
2023/09/22 03:24:54;;;;;;;3.73;2.30;;;;;12.70;99323.00;;;;10001537;29;20789;-78
2023/09/22 03:29:57;;;;;;;4.47;2.50;;;;;12.60;99328.00;;;;9980706;29;20214;-78
2023/09/22 03:34:59;;;;;;;7.73;2.60;;;;;12.60;99328.00;;;;10008981;29;20213;-78
2023/09/22 03:40:13;;;;;;;3.30;2.70;;;;;12.60;99331.00;;;;10018298;29;20952;-79
2023/09/22 03:45:18;;;;;;;8.97;3.17;;;;;12.60;99330.00;;;;9998229;29;20281;-78
2023/09/22 03:50:20;;;;;;;5.73;2.73;;;;;12.70;99342.00;;;;10003264;29;20213;-80
2023/09/22 03:55:22;;;;;;;6.37;3.03;;;;;12.70;99339.00;;;;9998108;29;20251;-78
2023/09/22 04:00:28;;;;;;;7.73;2.63;;;;;12.60;99342.00;;;;10011227;29;20815;-77
2023/09/22 04:05:31;;;;;;;6.87;2.43;;;;;12.50;99345.00;;;;10015540;29;20743;-77
2023/09/22 04:10:33;;;;;;;5.97;2.43;;;;;12.50;99353.00;;;;10010794;29;20229;-77
2023/09/22 04:15:35;;;;;;;6.93;2.57;;;;;12.50;99353.00;;;;9990703;29;20753;-78
2023/09/22 04:20:43;;;;;;;4.40;2.73;;;;;12.50;99364.00;;;;10011905;29;20629;-78
2023/09/22 04:25:47;;;;;;;3.70;2.00;;;;;12.60;99367.00;;;;9998774;29;20239;-79
2023/09/22 04:30:49;;;;;;;5.43;2.07;;;;;12.50;99366.00;;;;10007856;29;20213;-77
2023/09/22 04:35:51;;;;;;;6.93;2.53;;;;;12.50;99384.00;;;;10006942;29;20218;-77
2023/09/22 04:40:56;;;;;;;3.53;2.13;;;;;12.50;99383.00;;;;10030192;29;20221;-82
2023/09/22 04:46:01;;;;;;;4.67;2.60;;;;;12.50;99370.00;;;;10008329;29;20229;-82
2023/09/22 04:51:06;;;;;;;6.77;2.20;;;;;12.40;99375.00;;;;10009954;29;20208;-81
2023/09/22 04:56:09;;;;;;;3.90;2.10;;;;;12.30;99385.00;;;;9986095;29;20220;-82
2023/09/22 05:01:11;;;;;;;5.07;2.17;;;;;12.10;99389.00;;;;9995690;29;20232;-82
2023/09/22 05:06:13;;;;;;;4.83;1.60;;;;;12.00;99391.00;;;;10013324;29;20257;-81
2023/09/22 05:11:15;;;;;;;7.63;2.10;;;;;11.90;99396.00;;;;10025768;29;20299;-81
2023/09/22 05:16:18;;;;;;;4.30;1.70;;;;;11.80;99387.00;;;;10027895;29;20298;-81
2023/09/22 05:21:21;;;;;;;3.47;1.73;;;;;11.70;99393.00;;;;10007337;29;20221;-81
2023/09/22 05:26:23;;;;;;;5.43;1.50;;;;;11.70;99400.00;;;;9988188;29;20728;-82
2023/09/22 05:31:26;;;;;;;4.00;1.50;;;;;11.70;99398.00;;;;10009663;29;20277;-81
2023/09/22 05:36:29;;;;;;;3.73;1.40;;;;;11.60;99411.00;;;;10011225;29;20217;-80
2023/09/22 05:41:31;;;;;;;4.13;1.60;;;;;11.60;99414.00;;;;10010793;29;20219;-81
2023/09/22 05:46:34;;;;;;;3.67;1.73;;;;;11.60;99434.00;;;;10007090;29;20648;-81
2023/09/22 05:51:37;;;;;;;3.87;1.63;;;;;11.60;99437.00;;;;10017387;29;20424;-85
2023/09/22 05:56:40;;;;;;;5.10;1.90;;;;;11.70;99432.00;;;;10009063;29;20691;-84
2023/09/22 06:01:42;;;;;;;2.87;1.67;;;;;11.70;99442.00;;;;9991595;29;20297;-83
2023/09/22 06:06:45;;;;;;;3.47;2.10;;;;;11.90;99444.00;;;;9995087;29;20237;-83
2023/09/22 06:11:48;;;;;;;3.30;1.53;;;;;12.10;99446.00;;;;9987281;29;20241;-85
2023/09/22 06:16:50;;;;;;;3.50;1.83;;;;;12.30;99457.00;;;;9973100;29;20217;-84
2023/09/22 06:21:52;;;;;;;5.23;2.00;;;;;12.50;99442.00;;;;10045805;29;20569;-84
2023/09/22 06:26:54;;;;;;;2.77;1.90;;;;;12.60;99457.00;;;;10011278;29;20723;-84
2023/09/22 06:31:56;;;;;;;1.83;1.57;;;;;12.80;99473.00;;;;9979198;29;20241;-84
2023/09/22 06:36:58;;;;;;;4.07;1.23;;;;;12.90;99474.00;;;;9994735;29;20216;-85
2023/09/22 06:42:01;;;;;;;3.23;1.50;;;;;13.10;99485.00;;;;9999103;29;20286;-82
2023/09/22 06:47:04;;;;;;;4.30;1.73;;;;;13.20;99490.00;;;;10011435;29;20237;-82
2023/09/22 06:52:07;;;;;;;2.35;1.08;;;;;13.30;99495.00;;;;10019622;29;20855;-84
2023/09/22 06:57:10;;;;;;;1.95;0.93;;;;;13.40;99493.00;;;;10012048;29;20668;-87
2023/09/22 07:02:12;;;;;;;2.60;1.23;;;;;13.60;99514.00;;;;10011565;29;20278;-85
2023/09/22 07:07:14;;;;;;;3.03;1.30;;;;;13.80;99513.00;;;;9920922;29;20233;-84
2023/09/22 07:12:17;;;;;;;3.25;0.93;;;;;14.00;99518.00;;;;9957372;29;21899;-84
2023/09/22 07:17:19;;;;;;;2.30;1.23;;;;;14.10;99513.00;;;;9965277;29;20593;-83
2023/09/22 07:22:22;;;;;;;1.60;1.27;;;;;14.10;99523.00;;;;9935404;29;20227;-84
2023/09/22 07:27:25;;;;;;;5.35;1.60;;;;;14.40;99526.00;;;;9937925;29;20340;-84
2023/09/22 07:32:27;;;;;;;4.05;1.23;;;;;14.40;99530.00;;;;9932728;29;20308;-86
2023/09/22 07:37:30;;;;;;;4.85;1.20;;;;;14.50;99516.00;;;;9923548;29;20312;-84
2023/09/22 07:42:33;;;;;;;2.80;1.30;;;;;14.60;99535.00;;;;9931789;29;21014;-82
2023/09/22 07:47:37;;;;;;;1.73;0.90;;;;;14.80;99535.00;;;;9917140;29;20237;-84
2023/09/22 07:52:39;;;;;;;3.05;1.20;;;;;14.90;99542.00;;;;9955530;29;20300;-84
2023/09/22 07:57:41;;;;;;;2.17;1.17;;;;;15.20;99555.00;;;;9931744;29;20371;-82
2023/09/22 08:02:43;;;;;;;1.80;0.95;;;;;15.50;99561.00;;;;9917172;29;20228;-84
2023/09/22 08:07:52;;;;;;;3.33;1.00;;;;;15.70;99565.00;;;;9920587;29;20255;-85
2023/09/22 08:12:54;;;;;;;2.03;1.20;;;;;15.90;99561.00;;;;9927951;29;20247;-79
2023/09/22 08:17:57;;;;;;;3.80;1.00;;;;;15.70;99572.00;;;;9942938;29;20243;-81
2023/09/22 08:22:59;;;;;;;2.00;1.10;;;;;15.90;99576.00;;;;9932204;29;20282;-79
2023/09/22 08:28:02;;;;;;;1.83;0.80;;;;;16.80;99586.00;;;;9918033;29;20237;-81
2023/09/22 08:33:05;;;;;;;1.98;1.02;;;;;17.70;99584.00;;;;9946671;29;20225;-80
2023/09/22 08:38:07;;;;;;;2.08;1.08;;;;;18.40;99585.00;;;;9948667;29;20212;-80
2023/09/22 08:43:11;;;;;;;3.83;1.25;;;;;18.90;99597.00;;;;9941676;29;20225;-81
2023/09/22 08:48:14;;;;;;;4.38;1.20;;;;;18.60;99604.00;;;;9922831;29;21909;-79
2023/09/22 08:53:17;;;;;;;3.35;1.00;;;;;18.70;99603.00;;;;9962543;29;20320;-80
2023/09/22 08:58:19;;;;;;;3.25;1.25;;;;;17.90;99608.00;;;;9944933;29;20293;-81
2023/09/22 09:03:21;;;;;;;1.67;0.85;;;;;17.60;99614.00;;;;9978122;29;20899;-82
2023/09/22 09:08:23;;;;;;;2.33;1.10;;;;;17.00;99630.00;;;;9961946;29;20233;-79
2023/09/22 09:13:29;;;;;;;3.42;0.93;;;;;16.90;99627.00;;;;9957516;29;20213;-80
2023/09/22 09:18:32;;;;;;;1.38;0.88;;;;;17.50;99611.00;;;;9915663;29;20216;-84
2023/09/22 09:23:34;;;;;;;5.10;0.98;;;;;19.10;99603.00;;;;9918214;29;20383;-84
2023/09/22 09:28:42;;;;;;;4.05;1.13;;;;;19.80;99602.00;;;;9976641;29;20244;-82
2023/09/22 09:33:54;;;;;;;1.52;0.88;;;;;19.40;99605.00;;;;9946463;29;20209;-85
2023/09/22 09:38:56;;;;;;;3.17;0.98;;;;;20.70;99596.00;;;;9926247;29;20225;-85
2023/09/22 09:44:30;;;;;;;2.63;0.80;;;;;20.60;99594.00;;;;10135602;23;21603;31
2023/09/22 09:49:34;;;;;;;1.92;1.02;;;;;21.40;99585.00;;;;9944676;29;20298;-87
2023/09/22 09:54:43;;;;;;;2.65;1.17;;;;;21.90;99580.00;;;;9950376;29;20959;-86
2023/09/22 09:59:47;;;;;;;3.75;1.00;;;;;22.10;99587.00;;;;9975145;29;20245;-84
2023/09/22 10:04:49;;;;;;;2.47;1.08;;;;;21.90;99597.00;;;;9959405;29;20729;-88
2023/09/22 10:09:52;;;;;;;2.33;1.30;;;;;20.40;99594.00;;;;10009096;29;20240;-86
2023/09/22 10:15:01;;;;;;;2.53;1.00;;;;;20.00;99607.00;;;;10012564;29;20222;-88
2023/09/22 10:20:11;;;;;;;3.25;0.90;;;;;20.40;99608.00;;;;10008485;29;20227;-88
2023/09/22 10:25:13;;;;;;;3.53;1.20;;;;;20.70;99610.00;;;;10016170;29;20258;-85
2023/09/22 10:30:16;;;;;;;4.05;0.80;;;;;20.60;99608.00;;;;10040271;29;20269;-84
2023/09/22 10:35:39;;;;;;;3.55;0.90;;;;;20.10;99606.00;;;;10009290;29;20213;-87
2023/09/22 10:41:11;;;;;;;2.92;0.85;;;;;19.90;99597.00;;;;9968633;29;20224;-88
2023/09/22 10:46:16;;;;;;;2.22;0.88;;;;;20.40;99603.00;;;;9973307;29;20222;-88
2023/09/22 10:51:22;;;;;;;2.72;1.10;;;;;20.80;99595.00;;;;9979054;29;20436;-87
2023/09/22 10:56:25;;;;;;;0.98;0.70;;;;;20.80;99594.00;;;;9994554;29;20225;-89
2023/09/22 11:01:28;;;;;;;1.85;0.90;;;;;20.90;99593.00;;;;9984878;29;20585;-88
2023/09/22 11:06:42;;;;;;;2.25;0.80;;;;;21.20;99603.00;;;;10017583;29;20225;-85
2023/09/22 11:11:45;;;;;;;2.72;1.15;;;;;21.00;99600.00;;;;10000160;29;20274;-87
2023/09/22 11:16:48;;;;;;;2.67;0.80;;;;;20.60;99601.00;;;;10019295;29;20631;-89
2023/09/22 11:21:51;;;;;;;2.35;0.70;;;;;19.90;99608.00;;;;10020064;29;20210;-86
2023/09/22 11:26:53;;;;;;;2.35;0.90;;;;;19.80;99626.00;;;;10002690;29;20240;-85
2023/09/22 11:31:56;;;;;;;2.58;1.13;;;;;19.80;99618.00;;;;9948074;29;20217;-85
2023/09/22 11:36:59;;;;;;;3.80;1.38;;;;;19.70;99631.00;;;;9878329;29;20213;-84
2023/09/22 11:42:04;;;;;;;2.85;1.02;;;;;19.20;99629.00;;;;9924402;29;20413;-81
2023/09/22 11:47:06;;;;;;;3.45;1.13;;;;;19.10;99639.00;;;;9922201;29;20236;-82
2023/09/22 11:52:08;;;;;;;3.30;1.00;;;;;18.70;99627.00;;;;9891119;29;20268;-82
2023/09/22 11:57:10;;;;;;;1.70;0.80;;;;;18.50;99635.00;;;;9909606;29;20925;-82
2023/09/22 12:02:12;;;;;;;2.25;0.98;;;;;18.50;99634.00;;;;9909585;29;20305;-82
2023/09/22 12:07:14;;;;;;;2.83;0.85;;;;;18.20;99637.00;;;;9891833;29;20724;-81
2023/09/22 12:12:16;;;;;;;2.45;0.95;;;;;18.00;99643.00;;;;9907762;29;21933;-80
2023/09/22 12:17:20;;;;;;;1.85;1.15;;;;;18.10;99647.00;;;;9935919;29;20256;-82
2023/09/22 12:22:22;;;;;;;3.92;1.00;;;;;18.40;99647.00;;;;9893472;29;20258;-80
2023/09/22 12:27:24;;;;;;;2.90;1.10;;;;;18.80;99643.00;;;;9913905;29;20837;-81
2023/09/22 12:32:27;;;;;;;1.63;1.13;;;;;19.40;99637.00;;;;9919318;29;20285;-79
2023/09/22 12:37:30;;;;;;;3.15;1.08;;;;;19.90;99628.00;;;;9916898;29;20314;-80
2023/09/22 12:42:33;;;;;;;2.70;1.15;;;;;19.80;99614.00;;;;9921695;29;20226;-81
2023/09/22 12:47:35;;;;;;;2.97;1.10;;;;;20.20;99612.00;;;;9922874;29;20256;-81
2023/09/22 12:52:37;;;;;;;2.78;1.00;;;;;22.10;99611.00;;;;9915431;29;20601;-83
2023/09/22 12:57:39;;;;;;;3.67;0.90;;;;;22.30;99617.00;;;;9916724;29;20228;-84
2023/09/22 13:02:42;;;;;;;4.18;1.13;;;;;20.80;99601.00;;;;9918434;29;20524;-83
2023/09/22 13:07:44;;;;;;;3.67;1.00;;;;;20.00;99605.00;;;;9916950;29;20237;-83
2023/09/22 13:12:46;;;;;;;5.20;1.25;;;;;19.50;99607.00;;;;9927068;29;20825;-83
2023/09/22 13:17:48;;;;;;;3.70;1.17;;;;;19.00;99602.00;;;;9942386;29;20296;-83
2023/09/22 13:22:50;;;;;;;2.03;0.90;;;;;18.70;99604.00;;;;9925839;29;20213;-83
2023/09/22 13:27:52;;;;;;;5.45;1.10;;;;;18.30;99611.00;;;;9926856;29;21303;-83
2023/09/22 13:32:55;;;;;;;3.58;0.80;;;;;18.00;99625.00;;;;9913327;29;21323;-83
2023/09/22 13:37:57;;;;;;;2.95;0.95;;;;;17.80;99619.00;;;;9926117;29;20906;-83
2023/09/22 13:43:00;;;;;;;2.10;0.93;;;;;17.50;99620.00;;;;9909913;29;20232;-83
2023/09/22 13:48:04;;;;;;;3.60;1.17;;;;;17.10;99630.00;;;;9923587;29;20249;-83
2023/09/22 13:53:11;;;;;;;6.13;1.67;;;;;16.60;99637.00;;;;9891735;29;20281;-83
2023/09/22 13:58:13;;;;;;;9.38;2.10;;;;;15.80;99644.00;;;;9937871;29;20370;-84
2023/09/22 14:03:15;;;;;;;4.30;1.45;;;;;15.20;99632.00;;;;9912155;29;20245;-80
2023/09/22 14:08:18;;;;;;;5.07;1.98;;;;;15.00;99643.00;;;;9888359;29;20996;-80
2023/09/22 14:13:20;;;;;;;2.85;1.60;;;;;14.80;99649.00;;;;9903968;29;21071;-81
2023/09/22 14:18:22;;;;;;;8.63;1.90;;;;;14.80;99648.00;;;;9887537;29;20218;-79
2023/09/22 14:23:24;;;;;;;3.17;1.38;;;;;14.70;99645.00;;;;9916758;29;20209;-80
2023/09/22 14:28:28;;;;;;;2.95;1.48;;;;;14.80;99650.00;;;;9884373;29;20937;-79
2023/09/22 14:33:30;;;;;;;5.30;1.55;;;;;14.90;99640.00;;;;9917029;29;20704;-79
2023/09/22 14:38:33;;;;;;;3.28;1.38;;;;;15.20;99638.00;;;;9902239;29;20577;-79
2023/09/22 14:43:35;;;;;;;3.47;1.83;;;;;14.80;99635.00;;;;9919308;29;20679;-79
2023/09/22 14:48:37;;;;;;;8.48;2.10;;;;;14.80;99628.00;;;;9931970;29;20827;-79
2023/09/22 14:53:39;;;;;;;3.22;1.60;;;;;14.60;99632.00;;;;9931236;29;20233;-78
2023/09/22 14:58:41;;;;;;;5.50;1.85;;;;;14.20;99632.00;;;;9932537;29;20907;-78
2023/09/22 15:03:44;;;;;;;4.55;1.90;;;;;13.80;99637.00;;;;9914193;29;20312;-78
2023/09/22 15:08:46;;;;;;;9.75;2.55;;;;;13.60;99641.00;;;;9918373;29;20279;-79
2023/09/22 15:13:50;;;;;;;4.32;2.25;;;;;13.40;99645.00;;;;9906894;29;20308;-79
2023/09/22 15:18:52;;;;;;;3.85;2.40;;;;;13.20;99644.00;;;;9905848;29;20671;-78
2023/09/22 15:23:54;;;;;;;5.60;1.87;;;;;12.80;99666.00;;;;9918110;29;20298;-79
2023/09/22 15:28:56;;;;;;;2.43;1.80;;;;;12.50;99681.00;;;;9916420;29;20466;-79
2023/09/22 15:34:00;;;;;;;3.30;1.73;;;;;12.50;99690.00;;;;9899322;29;20565;-79
2023/09/22 15:39:02;;;;;;;2.83;2.20;;;;;12.50;99695.00;;;;9919806;29;20221;-78
2023/09/22 15:44:04;;;;;;;4.37;2.40;;;;;12.40;99719.00;;;;9920805;29;20808;-79
2023/09/22 15:49:06;;;;;;;7.50;2.30;;;;;12.30;99728.00;;;;9932175;29;20328;-78
2023/09/22 15:54:09;;;;;;;6.47;2.63;;;;;12.20;99731.00;;;;9887844;29;20707;-79
2023/09/22 15:59:12;;;;;;;3.47;2.17;;;;;12.10;99733.00;;;;9899306;29;20804;-79
2023/09/22 16:04:14;;;;;;;5.17;2.00;;;;;12.10;99725.00;;;;9898056;29;20205;-79
2023/09/22 16:09:17;;;;;;;2.83;2.00;;;;;12.00;99726.00;;;;9888234;29;20289;-78
2023/09/22 16:14:19;;;;;;;3.67;1.73;;;;;12.00;99719.00;;;;9919193;29;20768;-79
2023/09/22 16:19:24;;;;;;;5.23;2.70;;;;;12.10;99710.00;;;;9917962;29;20224;-82
2023/09/22 16:24:26;;;;;;;3.83;2.87;;;;;12.20;99713.00;;;;9907021;29;20326;-79
2023/09/22 16:29:28;;;;;;;2.93;2.20;;;;;12.30;99735.00;;;;9932022;29;20570;-81
2023/09/22 16:34:31;;;;;;;7.93;3.93;;;;;12.30;99745.00;;;;9901893;29;20224;-80
2023/09/22 16:39:33;;;;;;;7.30;3.87;;;;;12.50;99761.00;;;;9924991;29;20217;-80
2023/09/22 16:44:35;;;;;;;5.70;3.77;;;;;12.60;99772.00;;;;9903637;29;21815;-80
2023/09/22 16:49:38;;;;;;;8.37;4.50;;;;;12.70;99773.00;;;;9927533;29;20589;-79
2023/09/22 16:54:44;;;;;;;90.83;54.00;;;;;12.80;99786.00;;;;9909052;29;20782;-79
2023/09/22 16:59:47;;;;;;;108.10;77.40;;;;;12.90;99790.00;;;;9943972;29;21840;-79
2023/09/22 17:04:49;;;;;;;12.70;8.30;;;;;12.90;99797.00;;;;9924007;29;21773;-81
2023/09/22 17:09:51;;;;;;;9.43;5.07;;;;;12.90;99803.00;;;;9895810;29;20224;-78
2023/09/22 17:14:53;;;;;;;7.13;5.60;;;;;12.80;99808.00;;;;9918757;29;20221;-80
2023/09/22 17:19:55;;;;;;;8.83;5.17;;;;;12.80;99813.00;;;;9911831;29;20720;-79
2023/09/22 17:24:58;;;;;;;7.30;5.13;;;;;12.80;99830.00;;;;9911849;29;20225;-78
2023/09/22 17:30:01;;;;;;;8.13;4.90;;;;;12.80;99822.00;;;;9911668;29;20639;-80
2023/09/22 17:35:04;;;;;;;8.50;4.77;;;;;12.70;99841.00;;;;9913520;29;20499;-80
2023/09/22 17:40:06;;;;;;;5.80;4.03;;;;;12.70;99855.00;;;;9926677;29;20253;-79
2023/09/22 17:45:09;;;;;;;6.43;4.40;;;;;12.70;99876.00;;;;9917594;29;20229;-83
2023/09/22 17:50:11;;;;;;;1.60;1.50;;;;;12.50;99864.00;;;;9959134;29;20236;-83
2023/09/22 17:55:13;;;;;;;1.40;1.30;;;;;12.10;99871.00;;;;9954739;29;20217;-81
2023/09/22 18:00:16;;;;;;;3.93;1.77;;;;;11.80;99882.00;;;;9908519;29;20237;-82
2023/09/22 18:05:18;;;;;;;3.13;1.37;;;;;11.70;99906.00;;;;9914478;29;20256;-79
2023/09/22 18:10:21;;;;;;;2.60;1.77;;;;;11.60;99905.00;;;;9932231;29;20229;-80
2023/09/22 18:15:23;;;;;;;3.70;2.00;;;;;11.60;99915.00;;;;9945242;29;20215;-80
2023/09/22 18:20:25;;;;;;;1.50;1.23;;;;;11.60;99923.00;;;;9912656;29;20297;-80
2023/09/22 18:25:27;;;;;;;1.90;1.40;;;;;11.50;99934.00;;;;9946024;29;20325;-80
2023/09/22 18:30:29;;;;;;;4.30;2.07;;;;;11.40;99939.00;;;;9941736;29;20240;-79
2023/09/22 18:35:31;;;;;;;3.07;1.87;;;;;11.40;99943.00;;;;9941272;29;20866;-79
2023/09/22 18:40:34;;;;;;;1.83;1.50;;;;;11.40;99950.00;;;;9921218;29;20887;-81
2023/09/22 18:45:37;;;;;;;2.97;1.37;;;;;11.40;99954.00;;;;9952369;29;20224;-80
2023/09/22 18:50:47;;;;;;;3.80;1.53;;;;;11.30;99968.00;;;;9955693;29;20316;-81
2023/09/22 18:55:53;;;;;;;3.53;1.80;;;;;11.30;99973.00;;;;9940621;29;20474;-81
2023/09/22 19:00:56;;;;;;;1.90;1.70;;;;;11.30;99981.00;;;;9952852;29;20941;-80
2023/09/22 19:06:00;;;;;;;3.93;2.80;;;;;11.30;99996.00;;;;9939126;29;20238;-82
2023/09/22 19:11:03;;;;;;;4.30;2.70;;;;;11.30;99996.00;;;;9941114;29;21474;-81
2023/09/22 19:16:05;;;;;;;3.07;2.73;;;;;11.30;100011.00;;;;9939993;29;20686;-80
2023/09/22 19:21:07;;;;;;;4.97;2.63;;;;;11.30;100019.00;;;;9927039;29;20221;-81
2023/09/22 19:26:10;;;;;;;3.80;2.87;;;;;11.30;100025.00;;;;9924139;29;21945;-81
2023/09/22 19:31:14;;;;;;;4.90;3.20;;;;;11.30;100029.00;;;;9924493;29;20304;-81
2023/09/22 19:36:19;;;;;;;5.23;3.80;;;;;11.30;100039.00;;;;9952435;29;20592;-81
2023/09/22 19:41:21;;;;;;;3.17;2.87;;;;;11.30;100045.00;;;;9908650;29;20217;-82
2023/09/22 19:46:27;;;;;;;4.23;2.70;;;;;11.30;100051.00;;;;9931856;29;20237;-81
2023/09/22 19:51:32;;;;;;;5.00;2.97;;;;;11.20;100060.00;;;;9935754;29;20763;-79
2023/09/22 19:56:36;;;;;;;3.80;2.60;;;;;11.10;100058.00;;;;9916796;29;20347;-79
2023/09/22 20:01:38;;;;;;;5.77;2.80;;;;;11.00;100077.00;;;;9912661;29;20240;-82
2023/09/22 20:06:40;;;;;;;5.37;2.57;;;;;10.90;100075.00;;;;9910984;29;20612;-79
2023/09/22 20:11:45;;;;;;;5.03;3.30;;;;;10.90;100079.00;;;;9912413;29;20225;-80
2023/09/22 20:16:47;;;;;;;10.67;3.57;;;;;10.90;100079.00;;;;9925525;29;20828;-79
2023/09/22 20:21:51;;;;;;;5.37;4.03;;;;;10.90;100088.00;;;;9898058;29;20225;-82
2023/09/22 20:26:59;;;;;;;4.70;3.40;;;;;10.90;100082.00;;;;9913140;29;20233;-77
2023/09/22 20:32:03;;;;;;;5.33;3.90;;;;;10.90;100089.00;;;;9928168;29;20226;-80
2023/09/22 20:37:05;;;;;;;5.77;4.20;;;;;10.90;100093.00;;;;9912279;29;20479;-82
2023/09/22 20:42:11;;;;;;;7.37;4.27;;;;;11.00;100102.00;;;;9910975;29;20216;-80
2023/09/22 20:47:15;;;;;;;7.27;4.97;;;;;11.00;100107.00;;;;9913144;29;20249;-81
2023/09/22 20:52:19;;;;;;;12.17;5.63;;;;;11.00;100106.00;;;;9925648;29;20225;-80
2023/09/22 20:57:24;;;;;;;10.17;5.87;;;;;11.00;100104.00;;;;9896562;29;20711;-80
2023/09/22 21:02:27;;;;;;;11.43;6.20;;;;;11.10;100123.00;;;;9876186;29;20242;-79
2023/09/22 21:07:30;;;;;;;9.53;6.83;;;;;11.20;100113.00;;;;9875834;29;20337;-79
2023/09/22 21:12:34;;;;;;;11.90;7.40;;;;;11.20;100117.00;;;;9918214;29;20225;-79
2023/09/22 21:17:36;;;;;;;10.77;8.67;;;;;11.20;100113.00;;;;9903281;29;20225;-79
2023/09/22 21:22:39;;;;;;;11.40;8.23;;;;;11.10;100116.00;;;;9895594;29;20241;-79
2023/09/22 21:27:42;;;;;;;11.53;8.00;;;;;11.10;100121.00;;;;9908821;29;20985;-79
2023/09/22 21:32:45;;;;;;;8.90;7.93;;;;;11.00;100121.00;;;;9897131;29;20253;-78
2023/09/22 21:37:47;;;;;;;9.93;7.53;;;;;11.00;100129.00;;;;9928247;29;20670;-80
2023/09/22 21:42:51;;;;;;;14.87;7.20;;;;;10.90;100143.00;;;;9911332;29;20231;-79
2023/09/22 21:47:55;;;;;;;10.73;7.73;;;;;11.00;100147.00;;;;9909758;29;21877;-79
2023/09/22 21:52:57;;;;;;;9.43;6.27;;;;;11.00;100143.00;;;;9912190;29;20246;-80
2023/09/22 21:58:01;;;;;;;7.33;5.87;;;;;11.10;100147.00;;;;9941330;29;20363;-79
2023/09/22 22:03:04;;;;;;;8.57;5.37;;;;;11.20;100157.00;;;;9923370;29;20231;-79
2023/09/22 22:08:17;;;;;;;14.70;4.63;;;;;11.30;100164.00;;;;9911375;29;20312;-79
2023/09/22 22:13:26;;;;;;;8.00;4.40;;;;;11.40;100190.00;;;;9935286;29;20796;-81
2023/09/22 22:18:32;;;;;;;9.77;4.43;;;;;11.30;100175.00;;;;9901529;29;21750;-82
2023/09/22 22:23:35;;;;;;;11.77;3.83;;;;;11.30;100171.00;;;;9934698;29;20316;-81
2023/09/22 22:28:40;;;;;;;13.90;3.73;;;;;11.30;100171.00;;;;9925381;29;20772;-81
2023/09/22 22:33:45;;;;;;;6.40;2.90;;;;;11.20;100177.00;;;;9931094;29;21825;-81
2023/09/22 22:38:49;;;;;;;11.83;3.67;;;;;11.20;100173.00;;;;9935462;29;21366;-82
2023/09/22 22:43:51;;;;;;;11.07;3.67;;;;;11.20;100190.00;;;;9932145;29;20217;-82
2023/09/22 22:48:54;;;;;;;8.40;4.30;;;;;11.20;100198.00;;;;9918891;29;20304;-82
2023/09/22 22:53:59;;;;;;;13.20;3.77;;;;;11.20;100205.00;;;;9910939;29;20221;-82
2023/09/22 22:59:04;;;;;;;14.13;3.60;;;;;11.10;100206.00;;;;9944390;29;20221;-81
2023/09/22 23:04:07;;;;;;;8.13;3.10;;;;;11.10;100199.00;;;;9944956;29;20217;-82
2023/09/22 23:09:14;;;;;;;10.67;3.20;;;;;11.10;100201.00;;;;9921027;29;20726;-82
2023/09/22 23:14:22;;;;;;;7.90;3.60;;;;;11.10;100193.00;;;;9909013;29;20988;-82
2023/09/22 23:19:24;;;;;;;8.63;3.43;;;;;11.10;100194.00;;;;9934351;29;20420;-83
2023/09/22 23:24:28;;;;;;;9.07;2.80;;;;;11.00;100196.00;;;;9928277;29;20222;-83
2023/09/22 23:29:35;;;;;;;14.60;3.10;;;;;11.00;100209.00;;;;9940535;29;20260;-85
2023/09/22 23:34:38;;;;;;;4.23;2.30;;;;;11.00;100214.00;;;;9939846;29;20381;-85
2023/09/22 23:39:41;;;;;;;5.90;2.90;;;;;11.00;100225.00;;;;9936182;29;20224;-83
2023/09/22 23:44:46;;;;;;;7.10;3.30;;;;;11.00;100227.00;;;;9938068;29;20226;-85
2023/09/22 23:49:49;;;;;;;7.37;2.50;;;;;10.90;100230.00;;;;9926372;29;20243;-84
2023/09/22 23:54:52;;;;;;;7.73;2.40;;;;;11.00;100239.00;;;;9952488;29;20221;-83
2023/09/22 23:59:56;;;;;;;3.93;2.40;;;;;11.00;100240.00;;;;9935638;29;20251;-84
